createdAt,value
2019-04-27T05:50:37.795Z,8.93
2019-04-27T06:03:14.441Z,8.80
2019-04-27T06:08:15.762Z,9.20
2019-04-27T06:11:25.671Z,8.33
2019-04-27T06:14:09.659Z,7.85
2019-04-27T06:36:49.371Z,10.43
2019-04-27T06:47:41.851Z,11.20
2019-04-27T06:50:21.849Z,10.70
2019-04-27T06:53:24.967Z,10.58
2019-04-27T07:35:55.684Z,6.12
2019-04-27T07:47:21.190Z,7.05
2019-04-27T07:52:51.774Z,6.80
2019-04-27T08:57:44.611Z,5.12
2019-04-27T09:04:13.071Z,5.33
2019-04-27T09:06:51.828Z,4.10
2019-04-27T09:09:37.558Z,4.40
2019-04-27T09:15:34.323Z,4.80
2019-04-27T09:18:04.860Z,4.58
2019-04-27T09:23:56.099Z,5.58
2019-04-27T09:26:39.188Z,5.33
2019-04-27T09:29:46.159Z,5.10
2019-04-27T09:32:41.479Z,6.12
2019-04-27T09:41:49.040Z,5.25
2019-04-27T09:53:22.391Z,4.25
2019-04-27T09:56:00.547Z,4.67
2019-04-27T10:01:47.974Z,4.55
2019-04-27T10:04:38.398Z,5.20
2019-04-27T10:22:56.534Z,4.10
2019-04-27T10:29:16.194Z,5.72
2019-04-27T10:31:52.959Z,5.28
2019-04-27T10:43:59.752Z,4.67
2019-04-27T10:46:37.336Z,4.50
2019-04-27T10:49:15.969Z,3.75
2019-04-27T10:51:51.725Z,4.45
2019-04-27T10:54:28.526Z,3.17
2019-04-27T10:57:13.234Z,3.87
2019-04-27T10:59:50.385Z,4.42
2019-04-27T11:02:23.422Z,3.98
2019-04-27T11:05:03.046Z,4.20
2019-04-27T11:07:46.332Z,4.12
2019-04-27T11:10:43.127Z,4.05
2019-04-27T11:13:25.940Z,3.02
2019-04-27T11:15:56.730Z,3.95
2019-04-27T11:18:26.690Z,3.58
2019-04-27T11:20:57.709Z,3.90
2019-04-27T11:23:30.772Z,3.50
2019-04-27T11:26:02.473Z,4.10
2019-04-27T11:28:32.568Z,4.90
2019-04-27T11:31:03.915Z,4.12
2019-04-27T11:33:36.759Z,4.45
2019-04-27T11:36:31.057Z,4.47
2019-04-27T11:39:07.386Z,5.10
2019-04-27T11:42:25.392Z,4.15
2019-04-27T11:45:28.507Z,3.25
2019-04-27T11:47:41.371Z,2.60
2019-04-27T11:50:29.630Z,4.35
2019-04-27T11:53:03.670Z,5.85
2019-04-27T11:55:34.071Z,5.60
2019-04-27T11:58:03.921Z,5.90
2019-04-27T12:00:33.805Z,3.67
2019-04-27T12:03:06.909Z,3.00
2019-04-27T12:05:36.820Z,2.72
2019-04-27T12:08:10.417Z,3.42
2019-04-27T12:10:42.897Z,3.33
2019-04-27T12:13:13.626Z,3.60
2019-04-27T12:15:46.517Z,3.85
2019-04-27T12:18:23.415Z,3.77
2019-04-27T12:21:01.146Z,3.08
2019-04-27T12:23:35.985Z,3.20
2019-04-27T12:26:31.103Z,3.10
2019-04-27T12:32:05.644Z,3.17
2019-04-27T12:34:36.182Z,3.52
2019-04-27T12:37:07.287Z,3.50
2019-04-27T12:39:37.790Z,3.80
2019-04-27T12:42:07.696Z,4.58
2019-04-27T12:44:42.255Z,4.60
2019-04-27T12:47:10.625Z,5.20
2019-04-27T12:49:40.667Z,4.97
2019-04-27T12:52:10.497Z,4.53
2019-04-27T12:54:47.697Z,4.92
2019-04-27T12:57:20.836Z,5.90
2019-04-27T13:00:01.929Z,5.60
2019-04-27T13:02:35.180Z,6.60
2019-04-27T13:05:07.495Z,5.65
2019-04-27T13:07:37.544Z,5.85
2019-04-27T13:10:15.803Z,5.80
2019-04-27T13:12:51.563Z,4.03
2019-04-27T13:15:21.562Z,4.10
2019-04-27T13:17:51.402Z,2.55
2019-04-27T13:20:29.769Z,2.77
2019-04-27T13:23:02.797Z,2.22
2019-04-27T13:25:38.233Z,2.27
2019-04-27T13:28:11.356Z,2.60
2019-04-27T13:30:42.268Z,4.10
2019-04-27T13:33:12.683Z,2.12
2019-04-27T13:35:43.823Z,1.95
2019-04-27T13:38:13.751Z,2.65
2019-04-27T13:40:43.578Z,3.22
2019-04-27T13:43:25.956Z,2.87
2019-04-27T13:46:05.560Z,2.40
2019-04-27T13:48:39.665Z,3.27
2019-04-27T13:51:30.824Z,3.12
2019-04-27T13:54:00.692Z,3.60
2019-04-27T13:56:30.541Z,2.92
2019-04-27T13:59:01.147Z,3.80
2019-04-27T14:01:36.476Z,3.72
2019-04-27T14:04:10.690Z,3.12
2019-04-27T14:06:42.069Z,2.72
2019-04-27T14:09:21.168Z,3.15
2019-04-27T14:11:52.544Z,3.20
2019-04-27T14:14:24.522Z,3.95
2019-04-27T14:16:55.470Z,3.58
2019-04-27T14:19:32.407Z,3.15
2019-04-27T14:22:05.422Z,3.37
2019-04-27T14:24:41.931Z,4.47
2019-04-27T14:27:12.093Z,3.83
2019-04-27T14:29:41.958Z,3.77
2019-04-27T14:32:18.312Z,3.92
2019-04-27T14:35:09.475Z,3.87
2019-04-27T14:37:22.044Z,4.17
2019-04-27T14:39:55.094Z,3.65
2019-04-27T14:42:29.322Z,4.12
2019-04-27T14:45:13.932Z,3.58
2019-04-27T14:51:04.180Z,3.20
2019-04-27T14:53:34.055Z,2.80
2019-04-27T14:56:03.904Z,2.75
2019-04-27T14:58:40.214Z,2.60
2019-04-27T15:01:12.712Z,3.22
2019-04-27T15:03:42.624Z,3.17
2019-04-27T15:06:15.937Z,3.60
2019-04-27T15:08:51.142Z,3.12
2019-04-27T15:11:21.175Z,2.83
2019-04-27T15:14:02.066Z,2.52
2019-04-27T15:16:31.221Z,2.65
2019-04-27T15:25:51.846Z,3.72
2019-04-27T15:28:27.872Z,3.42
2019-04-27T15:31:27.059Z,3.47
2019-04-27T15:34:17.608Z,3.22
2019-04-27T15:37:10.158Z,3.17
2019-04-27T15:40:04.026Z,3.27
2019-04-27T15:42:48.974Z,3.58
2019-04-27T15:45:15.994Z,3.52
2019-04-27T15:47:47.689Z,3.75
2019-04-27T15:50:18.263Z,4.25
2019-04-27T15:52:48.757Z,3.35
2019-04-27T15:55:31.788Z,4.55
2019-04-27T15:57:50.485Z,4.30
2019-04-27T16:00:22.261Z,4.65
2019-04-27T16:02:54.661Z,4.87
2019-04-27T16:05:37.495Z,4.20
2019-04-27T16:08:28.783Z,3.60
2019-04-27T16:10:59.713Z,3.90
2019-04-27T16:13:32.911Z,4.40
2019-04-27T16:16:02.908Z,4.15
2019-04-27T16:18:34.931Z,4.08
2019-04-27T16:21:07.207Z,4.15
2019-04-27T16:23:42.843Z,5.00
2019-04-27T16:26:15.278Z,3.70
2019-04-27T16:28:52.990Z,4.78
2019-04-27T16:31:39.653Z,4.70
2019-04-27T16:34:28.642Z,3.40
2019-04-27T16:37:03.630Z,3.40
2019-04-27T16:39:39.683Z,4.03
2019-04-27T16:42:14.268Z,3.80
2019-04-27T16:44:48.809Z,3.27
2019-04-27T16:47:24.293Z,3.25
2019-04-27T16:49:55.015Z,3.08
2019-04-27T16:52:29.823Z,2.67
2019-04-27T16:55:02.547Z,3.58
2019-04-27T16:57:39.834Z,3.80
2019-04-27T17:00:12.909Z,3.50
2019-04-27T17:05:49.333Z,3.50
2019-04-27T17:08:32.539Z,3.50
2019-04-27T17:11:23.485Z,3.00
2019-04-27T17:14:01.621Z,3.70
2019-04-27T17:16:48.881Z,3.65
2019-04-27T17:21:52.098Z,3.02
2019-04-27T17:24:41.631Z,3.52
2019-04-27T17:27:22.059Z,3.10
2019-04-27T17:30:19.343Z,3.75
2019-04-27T17:32:51.219Z,3.27
2019-04-27T17:35:20.980Z,2.47
2019-04-27T17:37:54.235Z,3.92
2019-04-27T17:40:30.001Z,3.95
2019-04-27T17:43:06.909Z,2.05
2019-04-27T17:45:36.225Z,3.45
2019-04-27T17:48:06.700Z,3.45
2019-04-27T17:50:36.031Z,3.52
2019-04-27T17:53:05.855Z,4.10
2019-04-27T17:55:36.229Z,3.98
2019-04-27T17:58:06.654Z,3.35
2019-04-27T18:00:43.583Z,2.90
2019-04-27T18:03:12.631Z,3.42
2019-04-27T18:05:58.245Z,3.27
2019-04-27T18:08:30.145Z,3.10
2019-04-27T18:11:03.290Z,3.75
2019-04-27T18:13:33.293Z,4.00
2019-04-27T18:16:03.155Z,3.90
2019-04-27T18:18:40.751Z,3.60
2019-04-27T18:23:45.411Z,3.58
2019-04-27T18:26:24.099Z,3.90
2019-04-27T18:28:54.585Z,3.98
2019-04-27T18:31:24.444Z,3.67
2019-04-27T18:33:54.673Z,4.00
2019-04-27T18:36:24.509Z,3.83
2019-04-27T18:38:54.323Z,4.28
2019-04-27T18:41:44.403Z,4.45
2019-04-27T18:44:11.316Z,4.33
2019-04-27T18:46:43.683Z,4.50
2019-04-27T18:49:26.684Z,4.33
2019-04-27T18:52:04.208Z,5.00
2019-04-27T18:54:55.937Z,4.65
2019-04-27T18:57:30.016Z,5.22
2019-04-27T19:00:42.693Z,4.47
2019-04-27T19:12:41.190Z,4.15
2019-04-27T19:18:24.796Z,3.72
2019-04-27T19:33:15.848Z,3.22
2019-04-27T19:38:42.202Z,1.50
2019-04-27T19:41:15.003Z,1.40
2019-04-27T19:43:45.408Z,1.40
2019-04-27T19:46:16.955Z,1.72
2019-04-27T19:48:51.148Z,1.55
2019-04-27T19:51:21.030Z,1.42
2019-04-27T19:53:55.003Z,1.80
2019-04-27T19:56:28.341Z,1.70
2019-04-27T19:59:06.048Z,1.82
2019-04-27T20:01:48.174Z,1.77
2019-04-27T20:04:35.542Z,2.40
2019-04-27T20:10:23.237Z,2.90
2019-04-27T20:40:52.837Z,5.15
2019-04-27T20:43:27.122Z,4.72
2019-04-27T20:52:01.022Z,6.55
2019-04-27T20:54:33.886Z,5.37
2019-04-27T20:57:08.470Z,4.60
2019-04-27T20:59:38.932Z,5.33
2019-04-27T21:02:32.911Z,6.00
2019-04-27T21:05:21.190Z,4.78
2019-04-27T21:07:55.632Z,4.30
2019-04-27T21:10:33.809Z,4.35
2019-04-27T21:13:33.054Z,3.80
2019-04-27T21:16:02.985Z,4.80
2019-04-27T21:18:32.928Z,3.95
2019-04-27T21:21:07.231Z,4.20
2019-04-27T21:23:41.353Z,4.10
2019-04-27T21:26:12.019Z,4.60
2019-04-27T21:34:51.636Z,3.75
2019-04-27T21:43:28.435Z,3.62
2019-04-27T21:46:00.759Z,4.42
2019-04-27T21:48:53.582Z,4.22
2019-04-27T21:51:24.979Z,5.17
2019-04-27T21:53:59.634Z,5.15
2019-04-27T21:56:56.035Z,4.37
2019-04-27T21:59:30.996Z,5.22
2019-04-27T22:02:05.618Z,5.67
2019-04-27T22:04:51.799Z,4.70
2019-04-27T22:10:39.107Z,4.53
2019-04-27T22:13:31.273Z,5.25
2019-04-27T22:16:13.073Z,5.10
2019-04-27T22:24:30.665Z,4.90
2019-04-27T23:16:06.015Z,5.75
2019-04-27T23:31:42.276Z,5.55
2019-04-27T23:37:26.501Z,5.33
2019-04-27T23:40:11.248Z,3.80
2019-04-27T23:43:06.358Z,3.92
2019-04-27T23:45:53.322Z,3.65
2019-04-27T23:48:26.612Z,3.42
2019-04-27T23:51:18.744Z,3.80
2019-04-27T23:53:53.927Z,3.80
2019-04-27T23:56:43.825Z,2.65
2019-04-27T23:59:24.527Z,2.02
